Time;durP1;ratioP1;P1;durP2;ratioP2;P2;SDS_P1;SDS_P2;PMS_P1;PMS_P2;Temp;Humidity;BMP_temperature;BMP_pressure;BME280_temperature;BME280_humidity;BME280_pressure;Samples;Min_cycle;Max_cycle;Signal;HPM_P1;HPM_P2
2023/07/19 00:00:14;;;;;;;4.30;3.47;;;29.30;52.90;;;;;;5030548;28;20041;-77
2023/07/19 00:02:40;;;;;;;4.53;3.70;;;29.30;52.90;;;;;;5030361;28;20037;-77
2023/07/19 00:05:08;;;;;;;7.32;3.97;;;29.40;53.00;;;;;;5030319;28;20048;-77
2023/07/19 00:07:34;;;;;;;3.80;3.35;;;29.40;53.00;;;;;;5030351;28;20033;-77
2023/07/19 00:10:00;;;;;;;5.75;3.50;;;29.40;53.10;;;;;;5030356;28;20117;-77
2023/07/19 00:12:26;;;;;;;3.53;3.10;;;29.30;53.00;;;;;;5029914;28;20132;-77
2023/07/19 00:14:52;;;;;;;3.30;3.00;;;29.40;53.10;;;;;;5030131;28;20163;-77
2023/07/19 00:17:18;;;;;;;3.67;3.20;;;29.40;53.10;;;;;;5030303;28;20044;-77
2023/07/19 00:19:44;;;;;;;3.03;2.72;;;29.30;53.10;;;;;;5030461;28;20037;-77
2023/07/19 00:22:10;;;;;;;3.33;3.03;;;29.40;53.10;;;;;;5029948;28;20050;-77
2023/07/19 00:24:36;;;;;;;4.93;3.45;;;29.30;53.20;;;;;;5030066;28;20045;-77
2023/07/19 00:27:02;;;;;;;3.67;3.38;;;29.30;53.20;;;;;;4999681;28;20033;-77
2023/07/19 00:29:28;;;;;;;4.68;3.42;;;29.30;53.30;;;;;;5049950;28;20040;-77
2023/07/19 00:31:54;;;;;;;6.03;3.88;;;29.40;53.30;;;;;;5033147;28;20041;-77
2023/07/19 00:34:20;;;;;;;3.80;3.25;;;29.30;53.30;;;;;;5016893;28;20072;-77
2023/07/19 00:36:46;;;;;;;3.88;3.47;;;29.40;53.40;;;;;;5016428;28;20060;-77
2023/07/19 00:39:12;;;;;;;4.00;3.45;;;29.40;53.50;;;;;;5033298;28;20585;-77
2023/07/19 00:41:39;;;;;;;3.58;3.17;;;29.30;53.70;;;;;;5049515;28;20064;-77
2023/07/19 00:44:05;;;;;;;4.50;3.13;;;29.30;53.70;;;;;;5033751;28;20044;-77
2023/07/19 00:46:32;;;;;;;5.22;3.30;;;29.30;53.80;;;;;;5013058;28;20062;-77
2023/07/19 00:48:59;;;;;;;3.85;3.47;;;29.30;53.90;;;;;;5013130;28;20061;-78
2023/07/19 00:51:25;;;;;;;3.70;3.05;;;29.30;53.90;;;;;;5029399;28;20045;-78
2023/07/19 00:53:52;;;;;;;4.82;3.67;;;29.20;54.00;;;;;;5029867;28;20034;-77
2023/07/19 00:56:20;;;;;;;6.90;4.32;;;29.30;54.00;;;;;;5013316;28;20204;-78
2023/07/19 00:58:50;;;;;;;5.88;4.25;;;29.20;54.00;;;;;;5012892;28;20446;-78
2023/07/19 01:01:16;;;;;;;5.30;3.95;;;29.10;54.10;;;;;;5012812;28;20044;-78
2023/07/19 01:03:42;;;;;;;4.93;3.55;;;29.10;54.10;;;;;;5029526;28;20037;-78
2023/07/19 01:06:08;;;;;;;5.40;3.90;;;29.30;54.00;;;;;;5009394;28;20061;-78
2023/07/19 01:08:35;;;;;;;7.10;4.22;;;29.10;54.00;;;;;;5009599;28;20046;-77
2023/07/19 01:11:01;;;;;;;6.85;4.40;;;29.10;54.10;;;;;;5009291;28;20064;-77
2023/07/19 01:13:27;;;;;;;6.65;4.72;;;29.10;54.00;;;;;;5009690;28;20060;-77
2023/07/19 01:15:53;;;;;;;4.47;3.75;;;29.00;54.00;;;;;;5009036;28;20560;-78
2023/07/19 01:18:20;;;;;;;6.25;3.85;;;29.30;54.10;;;;;;5012846;28;20537;-77
2023/07/19 01:20:46;;;;;;;3.25;2.95;;;29.20;54.10;;;;;;5029190;28;20025;-77
2023/07/19 01:23:12;;;;;;;3.95;3.15;;;29.30;54.00;;;;;;5029201;28;20488;-77
2023/07/19 01:25:38;;;;;;;2.92;2.70;;;29.20;54.10;;;;;;5012414;28;20049;-77
2023/07/19 01:28:05;;;;;;;3.53;2.92;;;29.30;54.20;;;;;;5029080;28;20108;-78
2023/07/19 01:30:31;;;;;;;4.30;3.67;;;29.30;54.20;;;;;;5029205;28;20033;-78
2023/07/19 01:32:57;;;;;;;4.38;3.20;;;29.20;54.30;;;;;;5028783;28;20043;-77
2023/07/19 01:35:23;;;;;;;5.78;3.83;;;29.30;54.30;;;;;;5029091;28;20504;-78
2023/07/19 01:37:49;;;;;;;6.78;3.95;;;29.30;54.40;;;;;;5012299;28;20092;-78
2023/07/19 01:40:15;;;;;;;5.53;4.28;;;29.30;54.40;;;;;;5029060;28;20072;-78
2023/07/19 01:42:42;;;;;;;5.88;3.92;;;29.40;54.40;;;;;;5015456;28;20055;-78
2023/07/19 01:45:08;;;;;;;5.03;4.30;;;29.30;54.40;;;;;;5051439;28;20088;-78
2023/07/19 01:47:34;;;;;;;7.57;4.72;;;29.30;54.40;;;;;;5049691;28;20044;-77
2023/07/19 01:50:00;;;;;;;7.50;4.22;;;29.40;54.40;;;;;;5051146;28;20036;-77
2023/07/19 01:52:26;;;;;;;7.60;4.45;;;29.40;54.50;;;;;;5050094;28;20033;-78
2023/07/19 01:54:52;;;;;;;7.00;5.20;;;29.40;54.50;;;;;;5049770;28;20540;-78
2023/07/19 01:57:18;;;;;;;5.95;4.65;;;29.40;54.50;;;;;;5049987;28;20112;-78
2023/07/19 01:59:44;;;;;;;6.30;4.68;;;29.40;54.60;;;;;;5049789;28;20424;-77
2023/07/19 02:02:10;;;;;;;7.50;4.68;;;29.40;54.50;;;;;;5049598;28;20170;-77
2023/07/19 02:04:36;;;;;;;5.97;4.28;;;29.50;54.60;;;;;;5050769;28;20545;-78
2023/07/19 02:07:03;;;;;;;6.50;4.97;;;29.40;54.60;;;;;;5049879;28;20472;-77
2023/07/19 02:09:29;;;;;;;4.85;4.35;;;29.40;54.60;;;;;;5051183;28;20071;-78
2023/07/19 02:11:55;;;;;;;4.22;3.83;;;29.50;54.70;;;;;;5051026;28;20067;-78
2023/07/19 02:14:21;;;;;;;4.97;4.05;;;29.40;54.70;;;;;;5049792;28;20037;-78
2023/07/19 02:16:47;;;;;;;3.90;3.22;;;29.40;54.70;;;;;;5050983;28;20044;-77
2023/07/19 02:19:14;;;;;;;3.53;3.15;;;29.60;54.70;;;;;;5049463;28;20033;-78
2023/07/19 02:21:40;;;;;;;5.43;3.10;;;29.60;54.70;;;;;;5049854;28;20040;-78
2023/07/19 02:24:06;;;;;;;5.47;3.90;;;29.50;54.70;;;;;;5050899;28;20064;-78
2023/07/19 02:26:32;;;;;;;3.53;3.22;;;29.60;54.70;;;;;;5049608;28;20118;-78
2023/07/19 02:28:58;;;;;;;2.92;2.63;;;29.60;54.70;;;;;;5054403;28;20503;-78
2023/07/19 02:31:24;;;;;;;2.97;2.67;;;29.50;54.70;;;;;;5054330;28;20037;-78
2023/07/19 02:33:50;;;;;;;2.88;2.67;;;29.60;54.70;;;;;;5054635;28;20469;-78
2023/07/19 02:36:17;;;;;;;3.75;3.10;;;29.50;54.80;;;;;;5053639;28;20041;-78
2023/07/19 02:38:44;;;;;;;3.55;2.67;;;29.60;54.70;;;;;;5054749;28;20029;-78
2023/07/19 02:41:12;;;;;;;3.08;2.88;;;29.50;54.80;;;;;;5053342;28;20052;-78
2023/07/19 02:43:38;;;;;;;2.92;2.65;;;29.50;54.80;;;;;;5036438;28;20052;-77
2023/07/19 02:46:03;;;;;;;3.00;2.42;;;29.60;54.80;;;;;;5052728;28;20045;-78
2023/07/19 02:48:29;;;;;;;3.72;3.30;;;29.60;54.80;;;;;;5053304;28;20193;-78
2023/07/19 02:50:58;;;;;;;6.55;3.92;;;29.60;54.80;;;;;;5054515;28;20032;-78
2023/07/19 02:53:24;;;;;;;3.58;2.97;;;29.60;54.80;;;;;;5036306;28;20082;-77
2023/07/19 02:55:50;;;;;;;3.78;3.20;;;29.60;54.70;;;;;;5054411;28;20084;-77
2023/07/19 02:58:16;;;;;;;3.35;2.90;;;29.50;54.80;;;;;;5052790;28;20037;-78
2023/07/19 03:00:43;;;;;;;3.47;3.15;;;29.50;54.80;;;;;;5054275;28;20034;-78
2023/07/19 03:03:10;;;;;;;2.83;2.63;;;29.50;54.80;;;;;;5036168;28;20033;-77
2023/07/19 03:05:40;;;;;;;2.97;2.72;;;29.50;54.90;;;;;;5036261;28;20534;-78
2023/07/19 03:08:09;;;;;;;4.90;3.08;;;29.50;54.90;;;;;;5052926;28;20120;-77
2023/07/19 03:10:36;;;;;;;4.38;3.45;;;29.60;54.90;;;;;;5054016;28;20060;-78
2023/07/19 03:13:02;;;;;;;3.30;3.00;;;29.70;54.90;;;;;;5053816;28;20481;-78
2023/07/19 03:15:32;;;;;;;3.50;3.00;;;29.60;54.90;;;;;;5052539;28;20384;-78
2023/07/19 03:18:05;;;;;;;3.78;3.08;;;29.50;54.90;;;;;;5052851;28;20542;-77
2023/07/19 03:20:31;;;;;;;3.47;3.17;;;29.70;54.90;;;;;;5053966;28;20048;-77
2023/07/19 03:22:59;;;;;;;3.67;2.53;;;29.60;54.90;;;;;;5053579;28;20040;-77
2023/07/19 03:25:27;;;;;;;6.70;3.70;;;29.50;55.00;;;;;;5052245;28;20092;-77
2023/07/19 03:27:53;;;;;;;5.07;3.15;;;29.60;55.00;;;;;;5035941;28;20029;-77
2023/07/19 03:30:19;;;;;;;4.32;2.80;;;29.60;55.00;;;;;;5052210;28;20092;-77
2023/07/19 03:32:47;;;;;;;3.35;2.70;;;29.60;55.00;;;;;;5053512;28;20112;-78
2023/07/19 03:35:13;;;;;;;2.80;2.60;;;29.50;55.00;;;;;;5053646;28;20480;-77
2023/07/19 03:37:44;;;;;;;3.97;3.38;;;29.60;55.00;;;;;;5034561;28;20119;-77
2023/07/19 03:40:11;;;;;;;3.08;2.70;;;29.50;54.90;;;;;;5052085;28;20043;-77
2023/07/19 03:42:38;;;;;;;3.25;2.83;;;29.50;55.00;;;;;;5052324;28;20032;-77
2023/07/19 03:45:06;;;;;;;3.60;2.78;;;29.60;55.00;;;;;;5050445;28;20063;-77
2023/07/19 03:47:32;;;;;;;2.70;2.50;;;29.60;55.00;;;;;;5001148;28;20048;-77
2023/07/19 03:50:00;;;;;;;3.70;3.05;;;29.50;55.00;;;;;;5034093;28;20543;-77
2023/07/19 03:52:26;;;;;;;4.88;3.38;;;29.60;55.00;;;;;;5033951;28;20555;-78
2023/07/19 03:54:54;;;;;;;3.95;3.17;;;29.40;55.00;;;;;;5034226;28;20093;-81
2023/07/19 03:57:20;;;;;;;4.07;3.40;;;29.50;55.10;;;;;;5034476;28;20045;-81
2023/07/19 03:59:46;;;;;;;5.20;4.70;;;29.40;54.70;;;;;;5050869;28;20033;-82
2023/07/19 04:02:12;;;;;;;6.68;5.22;;;29.50;53.80;;;;;;5034489;28;20573;-81
2023/07/19 04:04:38;;;;;;;7.20;5.95;;;29.50;52.80;;;;;;5034227;28;20041;-80
2023/07/19 04:07:05;;;;;;;8.13;5.68;;;29.50;52.10;;;;;;5034251;28;20421;-79
2023/07/19 04:09:34;;;;;;;6.90;5.28;;;29.50;51.70;;;;;;5034148;28;20209;-79
2023/07/19 04:12:00;;;;;;;5.85;5.25;;;29.50;51.60;;;;;;5034454;28;20135;-80
2023/07/19 04:14:26;;;;;;;6.78;5.20;;;29.40;51.50;;;;;;5037432;28;20032;-83
2023/07/19 04:16:52;;;;;;;7.90;5.70;;;29.60;53.10;;;;;;5037570;28;20049;-85
2023/07/19 04:19:18;;;;;;;8.85;5.68;;;29.90;55.20;;;;;;5052824;28;20477;-77
2023/07/19 04:21:44;;;;;;;7.43;5.90;;;30.20;57.20;;;;;;5035022;28;20040;-77
2023/07/19 04:24:10;;;;;;;9.18;6.05;;;30.30;58.10;;;;;;5036397;28;20040;-83
2023/07/19 04:26:36;;;;;;;6.20;5.35;;;30.20;54.60;;;;;;5052067;28;20041;-84
2023/07/19 04:29:03;;;;;;;9.98;5.18;;;30.10;54.40;;;;;;5053391;28;20120;-83
2023/07/19 04:31:29;;;;;;;7.15;5.40;;;29.90;53.20;;;;;;5051986;28;20071;-84
2023/07/19 04:33:55;;;;;;;6.68;5.53;;;29.80;53.10;;;;;;5052295;28;20137;-82
2023/07/19 04:36:21;;;;;;;7.78;5.95;;;29.80;53.30;;;;;;5052404;28;20500;-81
2023/07/19 04:38:48;;;;;;;7.65;4.93;;;30.00;53.90;;;;;;5054249;28;20029;-84
2023/07/19 04:41:15;;;;;;;8.82;5.78;;;29.90;53.30;;;;;;5036778;28;20025;-84
2023/07/19 04:43:40;;;;;;;7.85;5.13;;;29.90;53.30;;;;;;5052751;28;20029;-84
2023/07/19 04:46:07;;;;;;;7.72;5.03;;;29.70;53.40;;;;;;5052536;28;20049;-85
2023/07/19 04:48:34;;;;;;;8.82;4.90;;;29.80;53.50;;;;;;5053563;28;20041;-83
2023/07/19 04:51:01;;;;;;;7.35;5.10;;;29.80;53.70;;;;;;5050315;28;20052;-85
2023/07/19 04:53:27;;;;;;;7.75;5.30;;;29.80;54.00;;;;;;5053847;28;20040;-85
2023/07/19 04:55:56;;;;;;;5.85;5.10;;;29.70;54.00;;;;;;5034783;28;20044;-82
2023/07/19 04:58:24;;;;;;;8.27;5.47;;;29.60;54.00;;;;;;5051465;28;20040;-85
2023/07/19 05:00:50;;;;;;;9.93;5.00;;;29.70;54.10;;;;;;5034095;28;20044;-82
2023/07/19 05:03:16;;;;;;;6.88;5.70;;;29.70;54.10;;;;;;5050051;28;20029;-82
2023/07/19 05:05:42;;;;;;;9.02;6.10;;;29.70;53.30;;;;;;5000371;28;20064;-82
2023/07/19 05:08:09;;;;;;;8.43;5.93;;;29.70;51.50;;;;;;5050440;28;20055;-80
2023/07/19 05:10:39;;;;;;;9.80;6.72;;;29.70;50.90;;;;;;5033659;28;20131;-87
2023/07/19 05:13:05;;;;;;;11.82;7.55;;;29.60;51.10;;;;;;5050385;28;20382;-85
2023/07/19 05:15:32;;;;;;;13.32;7.15;;;29.70;51.60;;;;;;5050023;28;20504;-87
2023/07/19 05:18:00;;;;;;;10.27;7.00;;;29.60;51.30;;;;;;5033621;28;20040;-83
2023/07/19 05:20:28;;;;;;;11.10;5.88;;;29.60;51.40;;;;;;5034011;28;20036;-84
2023/07/19 05:22:54;;;;;;;10.20;6.78;;;29.70;51.90;;;;;;5051121;28;20045;-83
2023/07/19 05:25:20;;;;;;;15.13;9.23;;;29.70;51.90;;;;;;5051545;28;20033;-83
2023/07/19 05:27:46;;;;;;;12.63;9.07;;;29.80;52.00;;;;;;5051485;28;20043;-84
2023/07/19 05:30:13;;;;;;;26.90;19.10;;;29.70;51.90;;;;;;5051452;28;20037;-80
2023/07/19 05:32:39;;;;;;;26.33;17.45;;;29.70;52.40;;;;;;5051471;28;20044;-78
2023/07/19 05:35:05;;;;;;;16.10;10.93;;;29.60;52.50;;;;;;5051075;28;20037;-84
2023/07/19 05:37:31;;;;;;;13.25;8.90;;;29.70;52.00;;;;;;5051718;28;20037;-82
2023/07/19 05:39:57;;;;;;;13.25;7.57;;;29.60;51.80;;;;;;5051488;28;20079;-82
2023/07/19 05:42:23;;;;;;;14.35;7.18;;;29.60;51.60;;;;;;5051447;28;20032;-83
2023/07/19 05:44:49;;;;;;;7.50;5.60;;;29.90;51.50;;;;;;5051414;28;20081;-84
2023/07/19 05:47:15;;;;;;;7.32;5.32;;;29.60;51.50;;;;;;5051779;28;20110;-82
2023/07/19 05:49:42;;;;;;;8.73;5.30;;;29.80;51.40;;;;;;5050695;28;20039;-83
2023/07/19 05:52:07;;;;;;;20.63;12.10;;;29.70;51.20;;;;;;5049947;28;20424;-83
2023/07/19 05:54:34;;;;;;;10.45;7.18;;;29.70;51.60;;;;;;5051161;28;20029;-82
2023/07/19 05:57:00;;;;;;;11.07;5.82;;;29.70;51.90;;;;;;5051420;28;20396;-82
2023/07/19 05:59:26;;;;;;;8.57;5.47;;;29.70;52.00;;;;;;5051394;28;20152;-80
2023/07/19 06:01:52;;;;;;;7.13;5.50;;;29.70;52.30;;;;;;5053029;28;20106;-79
2023/07/19 06:04:18;;;;;;;7.43;5.57;;;29.90;52.80;;;;;;5055131;28;20465;-84
2023/07/19 06:06:44;;;;;;;6.68;5.60;;;29.90;53.10;;;;;;5055268;28;20086;-79
2023/07/19 06:09:10;;;;;;;6.95;5.40;;;29.70;53.10;;;;;;5055759;28;20029;-83
2023/07/19 06:11:36;;;;;;;6.65;4.97;;;29.70;53.40;;;;;;5055648;28;20178;-84
2023/07/19 06:14:02;;;;;;;14.48;6.22;;;29.90;54.20;;;;;;5055263;28;20037;-86
2023/07/19 06:16:28;;;;;;;9.02;5.35;;;29.70;54.30;;;;;;5055349;28;20020;-85
2023/07/19 06:18:54;;;;;;;8.35;5.60;;;29.80;54.60;;;;;;5055548;28;20040;-84
2023/07/19 06:21:22;;;;;;;7.65;5.38;;;29.70;55.60;;;;;;5052846;28;20392;-81
2023/07/19 06:23:48;;;;;;;6.78;5.22;;;29.60;55.00;;;;;;5054513;28;20101;-79
2023/07/19 06:26:14;;;;;;;6.35;5.25;;;29.70;55.00;;;;;;5069146;28;20075;-81
2023/07/19 06:28:40;;;;;;;6.95;5.35;;;29.70;55.60;;;;;;5075555;28;20039;-85
2023/07/19 06:31:06;;;;;;;7.15;5.60;;;29.60;54.90;;;;;;5075317;28;20051;-84
2023/07/19 06:33:32;;;;;;;10.00;5.30;;;29.80;54.70;;;;;;5075431;28;20035;-85
2023/07/19 06:35:58;;;;;;;7.55;4.85;;;29.70;54.90;;;;;;5075902;28;20166;-84
2023/07/19 06:38:25;;;;;;;13.88;5.97;;;29.80;54.50;;;;;;5058414;28;20124;-83
2023/07/19 06:40:51;;;;;;;10.35;5.97;;;29.70;54.40;;;;;;5037238;28;20527;-83
2023/07/19 06:43:17;;;;;;;7.47;5.45;;;29.70;54.00;;;;;;5054973;28;20033;-82
2023/07/19 06:45:47;;;;;;;7.13;5.55;;;29.70;52.60;;;;;;5052823;28;20059;-76
2023/07/19 06:48:13;;;;;;;12.10;6.55;;;29.70;52.60;;;;;;5053347;28;20247;-76
2023/07/19 06:50:39;;;;;;;7.70;6.13;;;29.80;52.50;;;;;;5036665;28;20515;-75
2023/07/19 06:53:06;;;;;;;8.15;6.00;;;29.70;52.50;;;;;;5054360;28;20036;-76
2023/07/19 06:55:32;;;;;;;10.57;5.50;;;29.80;52.60;;;;;;5054248;28;20488;-76
2023/07/19 06:57:58;;;;;;;11.95;5.47;;;29.70;52.80;;;;;;5054067;28;20029;-75
2023/07/19 07:00:24;;;;;;;10.13;5.97;;;29.70;53.10;;;;;;5054348;28;20057;-75
2023/07/19 07:02:50;;;;;;;8.02;4.78;;;29.90;53.30;;;;;;5054064;28;20036;-75
2023/07/19 07:05:16;;;;;;;8.63;5.63;;;29.80;53.40;;;;;;5054189;28;20388;-76
2023/07/19 07:07:42;;;;;;;6.18;4.65;;;29.80;53.60;;;;;;5054245;28;20043;-75
2023/07/19 07:10:09;;;;;;;7.18;5.65;;;29.80;53.50;;;;;;5054243;28;20037;-76
2023/07/19 07:12:38;;;;;;;9.15;6.40;;;29.80;53.50;;;;;;5018386;28;20049;-77
2023/07/19 07:15:05;;;;;;;9.00;5.28;;;29.70;53.80;;;;;;5053954;28;20037;-77
2023/07/19 07:17:32;;;;;;;6.15;5.07;;;29.80;53.70;;;;;;5053755;28;20117;-76
2023/07/19 07:19:58;;;;;;;7.53;5.15;;;29.60;53.80;;;;;;5053747;28;20053;-77
2023/07/19 07:22:24;;;;;;;10.13;5.15;;;29.70;53.70;;;;;;5052704;28;20036;-77
2023/07/19 07:24:50;;;;;;;11.48;5.82;;;29.70;52.80;;;;;;5052116;28;20484;-78
2023/07/19 07:27:16;;;;;;;11.57;5.43;;;29.60;52.40;;;;;;5054111;28;20798;-77
2023/07/19 07:29:42;;;;;;;6.47;4.72;;;29.50;52.40;;;;;;5064588;28;20338;-79
2023/07/19 07:32:10;;;;;;;6.32;4.57;;;29.60;52.30;;;;;;5074087;28;20036;-78
2023/07/19 07:34:38;;;;;;;9.93;4.80;;;29.60;52.10;;;;;;5073494;28;20028;-80
2023/07/19 07:37:05;;;;;;;10.40;5.35;;;29.60;52.00;;;;;;5072578;28;20029;-79
2023/07/19 07:39:31;;;;;;;6.63;5.13;;;29.60;52.00;;;;;;5072301;28;20395;-78
2023/07/19 07:41:57;;;;;;;14.60;5.72;;;29.80;51.80;;;;;;5073268;28;20519;-77
2023/07/19 07:44:23;;;;;;;12.98;5.72;;;29.50;51.40;;;;;;5073525;28;20084;-77
2023/07/19 07:46:49;;;;;;;10.00;5.15;;;29.60;51.40;;;;;;5073661;28;20040;-79
2023/07/19 07:49:16;;;;;;;8.57;5.90;;;29.70;51.40;;;;;;5072410;28;20087;-79
2023/07/19 07:51:42;;;;;;;7.78;5.20;;;29.60;51.40;;;;;;5073001;28;20033;-78
2023/07/19 07:54:08;;;;;;;7.28;4.32;;;29.60;51.10;;;;;;5073092;28;20575;-79
2023/07/19 07:56:34;;;;;;;8.45;4.65;;;29.50;50.60;;;;;;5073221;28;20047;-78
2023/07/19 07:59:00;;;;;;;8.05;4.82;;;29.60;50.30;;;;;;5073570;28;20028;-77
2023/07/19 08:01:26;;;;;;;8.07;4.85;;;29.60;50.40;;;;;;5072221;28;20119;-80
2023/07/19 08:03:53;;;;;;;7.50;5.05;;;29.60;50.30;;;;;;5073506;28;20037;-82
2023/07/19 08:06:19;;;;;;;8.57;4.60;;;29.50;50.50;;;;;;5073279;28;20121;-80
2023/07/19 08:08:45;;;;;;;6.82;4.57;;;29.50;50.50;;;;;;5071528;28;20036;-78
2023/07/19 08:11:11;;;;;;;8.43;4.57;;;29.60;50.60;;;;;;5073298;28;20159;-85
2023/07/19 08:13:38;;;;;;;13.55;4.72;;;29.60;50.40;;;;;;5073284;28;20033;-80
2023/07/19 08:16:07;;;;;;;7.28;4.57;;;29.70;50.40;;;;;;5072889;28;20526;-76
2023/07/19 08:18:34;;;;;;;10.18;5.47;;;29.60;50.80;;;;;;5072657;28;20032;-81
2023/07/19 08:21:00;;;;;;;5.15;3.70;;;29.60;51.20;;;;;;5072768;28;20021;-78
2023/07/19 08:23:26;;;;;;;8.27;4.70;;;29.60;51.30;;;;;;5072379;28;20034;-80
2023/07/19 08:25:57;;;;;;;6.55;4.38;;;29.60;51.40;;;;;;5071169;28;20400;-79
2023/07/19 08:28:26;;;;;;;6.65;4.75;;;29.70;51.60;;;;;;5071428;28;20492;-80
2023/07/19 08:30:53;;;;;;;9.98;4.50;;;29.50;51.60;;;;;;5030186;28;20072;-77
2023/07/19 08:33:23;;;;;;;7.38;4.93;;;29.50;51.70;;;;;;5029871;28;20044;-82
2023/07/19 08:35:49;;;;;;;8.77;6.15;;;29.60;51.90;;;;;;5029691;28;20061;-78
2023/07/19 08:38:16;;;;;;;8.32;4.85;;;29.70;52.60;;;;;;5029675;28;20065;-79
2023/07/19 08:40:53;;;;;;;11.40;6.05;;;29.70;52.70;;;;;;5029724;28;20049;-78
2023/07/19 08:43:19;;;;;;;17.23;8.13;;;29.70;53.00;;;;;;4997040;28;20072;-78
2023/07/19 08:45:46;;;;;;;7.00;5.22;;;29.70;53.90;;;;;;5012589;28;20045;-78
2023/07/19 08:48:12;;;;;;;8.75;4.97;;;29.90;56.20;;;;;;5013489;28;20041;-78
2023/07/19 08:50:39;;;;;;;9.55;4.88;;;29.70;53.50;;;;;;5029485;28;20107;-78
2023/07/19 08:53:05;;;;;;;8.90;4.72;;;29.80;53.00;;;;;;5029683;28;20034;-78
2023/07/19 08:55:32;;;;;;;8.93;4.57;;;29.70;52.60;;;;;;5029563;28;20036;-77
2023/07/19 08:57:59;;;;;;;9.27;5.18;;;29.80;52.70;;;;;;5030141;28;20119;-77
2023/07/19 09:00:28;;;;;;;5.22;4.40;;;29.80;52.60;;;;;;5029632;28;20057;-79
2023/07/19 09:02:55;;;;;;;9.75;4.30;;;29.70;52.50;;;;;;5029611;28;20044;-79
2023/07/19 09:05:21;;;;;;;174.38;136.50;;;29.80;53.20;;;;;;5030627;28;20049;-77
2023/07/19 09:07:49;;;;;;;9.57;8.07;;;29.90;54.30;;;;;;5032459;28;20037;-79
2023/07/19 09:10:17;;;;;;;13.15;7.70;;;30.00;53.00;;;;;;5031981;28;20065;-75
2023/07/19 09:12:44;;;;;;;8.30;6.20;;;30.00;51.30;;;;;;5040985;28;20415;-76
2023/07/19 09:15:12;;;;;;;9.05;5.70;;;30.00;51.20;;;;;;5051637;28;20033;-77
2023/07/19 09:17:43;;;;;;;6.28;5.10;;;29.90;51.00;;;;;;5051626;28;20063;-77
2023/07/19 09:20:09;;;;;;;7.00;5.15;;;30.10;51.60;;;;;;5051814;28;20025;-76
2023/07/19 09:22:36;;;;;;;7.95;4.85;;;30.10;51.50;;;;;;5051493;28;20068;-77
2023/07/19 09:25:04;;;;;;;7.25;5.00;;;29.90;51.00;;;;;;5051372;28;20082;-76
2023/07/19 09:27:32;;;;;;;6.40;5.80;;;30.10;51.60;;;;;;5051352;28;20076;-75
2023/07/19 09:29:59;;;;;;;9.35;5.28;;;30.10;51.70;;;;;;5065618;28;20068;-76
2023/07/19 09:32:25;;;;;;;6.13;4.97;;;29.90;51.20;;;;;;5051049;28;20071;-80
2023/07/19 09:34:56;;;;;;;7.43;5.50;;;29.90;51.20;;;;;;5051418;28;20025;-80
2023/07/19 09:37:23;;;;;;;9.63;5.32;;;30.10;51.90;;;;;;5051313;28;20039;-82
2023/07/19 09:39:49;;;;;;;7.45;4.95;;;30.10;51.80;;;;;;5051431;28;20028;-79
2023/07/19 09:42:15;;;;;;;6.30;4.43;;;30.20;51.60;;;;;;5051747;28;20082;-80
2023/07/19 09:44:41;;;;;;;7.40;5.05;;;30.10;51.40;;;;;;5051214;28;20385;-79
2023/07/19 09:47:10;;;;;;;8.27;4.55;;;30.20;51.20;;;;;;5051343;28;20084;-81
2023/07/19 09:49:36;;;;;;;7.57;4.20;;;30.20;51.00;;;;;;5051511;28;20435;-79
2023/07/19 09:52:04;;;;;;;8.30;4.60;;;29.90;50.20;;;;;;5050519;28;20043;-81
2023/07/19 09:54:33;;;;;;;10.40;5.07;;;30.10;50.70;;;;;;5051368;28;20491;-79
2023/07/19 09:57:02;;;;;;;6.63;4.47;;;30.00;50.60;;;;;;5065556;28;20166;-79
2023/07/19 09:59:36;;;;;;;5.22;4.20;;;30.00;50.50;;;;;;5051129;28;20032;-78
2023/07/19 10:02:03;;;;;;;6.43;5.25;;;30.10;50.40;;;;;;5048780;28;20468;-80
2023/07/19 10:04:37;;;;;;;6.05;5.05;;;30.10;50.30;;;;;;5051202;28;20065;-80
2023/07/19 10:07:11;;;;;;;5.10;4.38;;;30.00;50.20;;;;;;5050855;28;20443;-82
2023/07/19 10:09:44;;;;;;;6.97;4.82;;;30.10;50.30;;;;;;5051174;28;20101;-80
2023/07/19 10:12:16;;;;;;;5.53;4.75;;;30.00;50.40;;;;;;5051155;28;20459;-81
2023/07/19 10:15:06;;;;;;;7.53;5.07;;;30.00;50.30;;;;;;5049840;28;20124;-81
2023/07/19 10:17:55;;;;;;;8.43;4.97;;;30.00;50.20;;;;;;5049807;28;20086;-82
2023/07/19 10:20:25;;;;;;;8.63;5.10;;;30.00;50.00;;;;;;5050929;28;20051;-80
2023/07/19 10:22:59;;;;;;;7.85;5.57;;;29.90;49.20;;;;;;5050833;28;20091;-80
2023/07/19 10:25:36;;;;;;;6.35;4.95;;;29.90;49.10;;;;;;5049491;28;20052;-79
2023/07/19 10:28:05;;;;;;;5.85;4.75;;;30.00;50.10;;;;;;5049715;28;20400;-80
2023/07/19 10:30:48;;;;;;;7.50;4.95;;;29.80;49.50;;;;;;5068440;28;20068;-77
2023/07/19 10:33:17;;;;;;;;;;;29.80;49.50;;;;;;5071483;28;20483;-77
2023/07/19 10:35:43;;;;;;;8.02;4.72;;;30.10;53.60;;;;;;5052707;28;19957;-77
2023/07/19 10:38:27;;;;;;;15.00;10.23;;;30.30;53.40;;;;;;5070889;28;20039;-78
2023/07/19 10:40:56;;;;;;;9.45;5.63;;;30.40;54.00;;;;;;5070904;28;20072;-76
2023/07/19 10:43:23;;;;;;;18.55;11.73;;;30.40;53.50;;;;;;5071248;28;20101;-74
2023/07/19 10:45:51;;;;;;;12.82;7.82;;;30.50;53.00;;;;;;5048133;28;20562;-78
2023/07/19 10:48:17;;;;;;;7.18;6.05;;;30.30;52.80;;;;;;5034853;28;20202;-75
2023/07/19 10:50:44;;;;;;;8.95;6.00;;;30.30;53.10;;;;;;4992441;28;20093;-77
2023/07/19 10:53:10;;;;;;;10.55;5.13;;;30.30;52.20;;;;;;5011715;28;20137;-77
2023/07/19 10:55:36;;;;;;;6.55;5.22;;;30.20;52.00;;;;;;5012307;28;20564;-78
2023/07/19 10:58:04;;;;;;;5.70;4.13;;;30.40;53.30;;;;;;5012386;28;20049;-79
2023/07/19 11:00:30;;;;;;;5.97;4.20;;;30.30;52.20;;;;;;4995780;28;20058;-78
2023/07/19 11:02:56;;;;;;;6.40;5.20;;;30.40;52.30;;;;;;4995663;28;20084;-77
2023/07/19 11:05:22;;;;;;;8.23;5.63;;;30.30;52.70;;;;;;4995295;28;20096;-78
2023/07/19 11:07:50;;;;;;;7.82;5.97;;;30.20;51.50;;;;;;5012130;28;20049;-74
2023/07/19 11:10:17;;;;;;;5.68;4.80;;;30.30;50.80;;;;;;5012496;28;20046;-74
2023/07/19 11:12:43;;;;;;;6.47;4.78;;;30.10;52.20;;;;;;4995814;28;20036;-74
2023/07/19 11:15:10;;;;;;;14.15;7.30;;;30.30;52.60;;;;;;5027918;28;20445;-74
2023/07/19 11:17:39;;;;;;;7.88;5.72;;;30.30;53.10;;;;;;4964163;28;20379;-74
2023/07/19 11:20:08;;;;;;;7.47;5.47;;;30.40;52.10;;;;;;4981629;28;20049;-75
2023/07/19 11:22:34;;;;;;;6.97;5.78;;;30.40;51.50;;;;;;5003893;28;20044;-77
2023/07/19 11:25:00;;;;;;;5.78;5.15;;;30.40;51.20;;;;;;5051615;28;20122;-75
2023/07/19 11:27:36;;;;;;;7.18;5.55;;;30.40;51.60;;;;;;5053763;28;20033;-76
2023/07/19 11:30:03;;;;;;;7.43;5.18;;;30.30;51.70;;;;;;5067423;28;20032;-77
2023/07/19 11:32:29;;;;;;;8.20;5.45;;;30.40;51.70;;;;;;5072519;28;20100;-75
2023/07/19 11:35:00;;;;;;;5.57;4.70;;;30.30;51.70;;;;;;5073683;28;20120;-76
2023/07/19 11:37:33;;;;;;;10.13;5.47;;;30.20;51.90;;;;;;5073385;28;20036;-75
2023/07/19 11:40:04;;;;;;;11.02;4.95;;;30.30;52.20;;;;;;5073534;28;20361;-75
2023/07/19 11:42:43;;;;;;;9.90;4.60;;;30.30;52.00;;;;;;5073378;28;20043;-75
2023/07/19 11:45:12;;;;;;;5.40;4.63;;;30.40;52.00;;;;;;5073373;28;20072;-75
2023/07/19 11:47:40;;;;;;;8.13;5.68;;;30.30;52.00;;;;;;5071761;28;20408;-74
2023/07/19 11:50:07;;;;;;;7.32;4.47;;;30.30;52.00;;;;;;5072125;28;20032;-75
2023/07/19 11:52:48;;;;;;;9.52;4.55;;;30.30;52.10;;;;;;5073458;28;20617;-76
2023/07/19 11:55:15;;;;;;;5.68;4.70;;;30.40;52.10;;;;;;5068868;28;20033;-76
2023/07/19 11:57:43;;;;;;;5.75;4.68;;;30.40;52.10;;;;;;5053015;28;20123;-74
2023/07/19 12:00:10;;;;;;;11.68;4.40;;;30.30;52.00;;;;;;5052648;28;20045;-74
2023/07/19 12:02:37;;;;;;;6.30;4.43;;;30.20;52.00;;;;;;5053063;28;20033;-74
2023/07/19 12:05:04;;;;;;;8.45;4.72;;;30.30;52.10;;;;;;5053114;28;20560;-74
2023/07/19 12:07:32;;;;;;;8.68;4.88;;;30.30;52.10;;;;;;5051427;28;20025;-74
2023/07/19 12:10:00;;;;;;;5.85;4.18;;;30.10;52.20;;;;;;5053242;28;20037;-74
2023/07/19 12:12:26;;;;;;;7.57;4.82;;;30.20;52.50;;;;;;5090163;28;20044;-75
2023/07/19 12:14:52;;;;;;;6.47;4.75;;;30.20;53.10;;;;;;5090069;28;20109;-74
2023/07/19 12:17:19;;;;;;;5.55;4.38;;;30.20;53.00;;;;;;5090232;28;20070;-75
2023/07/19 12:19:44;;;;;;;8.13;4.63;;;30.10;52.80;;;;;;5090252;28;20111;-73
2023/07/19 12:22:10;;;;;;;4.90;4.35;;;30.20;53.00;;;;;;5090245;28;20115;-74
2023/07/19 12:24:37;;;;;;;5.75;4.38;;;30.00;53.10;;;;;;5090068;28;20044;-74
2023/07/19 12:27:03;;;;;;;5.22;4.35;;;30.20;53.10;;;;;;5090037;28;20035;-73
2023/07/19 12:29:29;;;;;;;7.10;4.60;;;29.90;52.70;;;;;;5073114;28;20044;-73
2023/07/19 12:31:55;;;;;;;7.60;4.18;;;30.00;53.70;;;;;;5090373;28;20640;-74
2023/07/19 12:34:21;;;;;;;6.75;5.15;;;29.90;52.80;;;;;;5089897;28;20422;-76
2023/07/19 12:36:49;;;;;;;4.60;3.88;;;30.00;53.50;;;;;;5069517;28;20166;-76
2023/07/19 12:39:15;;;;;;;7.40;4.38;;;30.10;53.50;;;;;;5069892;28;20044;-76
2023/07/19 12:41:42;;;;;;;4.45;4.05;;;29.90;53.70;;;;;;5069720;28;20123;-77
2023/07/19 12:44:07;;;;;;;7.47;5.35;;;30.00;54.20;;;;;;5069661;28;20052;-77